Time;durP1;ratioP1;P1;durP2;ratioP2;P2;SDS_P1;SDS_P2;PMS_P1;PMS_P2;Temp;Humidity;BMP_temperature;BMP_pressure;BME280_temperature;BME280_humidity;BME280_pressure;Samples;Min_cycle;Max_cycle;Signal;HPM_P1;HPM_P2
2023/05/15 00:00:30;;;;;;;7.82;7.05;;;13.50;99.90;;;;;;5108867;28;20023;-48
2023/05/15 00:02:56;;;;;;;9.15;7.05;;;13.50;99.90;;;;;;5108540;28;20016;-50
2023/05/15 00:05:23;;;;;;;10.13;7.95;;;13.40;99.90;;;;;;5125852;27;20102;-47
2023/05/15 00:07:49;;;;;;;10.13;7.15;;;13.30;99.90;;;;;;5110351;28;20016;-48
2023/05/15 00:10:15;;;;;;;11.85;7.60;;;13.30;99.90;;;;;;5108613;28;20020;-46
2023/05/15 00:12:40;;;;;;;9.68;8.35;;;13.30;99.90;;;;;;5108520;28;20026;-43
2023/05/15 00:15:06;;;;;;;8.63;7.10;;;13.30;99.90;;;;;;5110207;28;20024;-42
2023/05/15 00:17:32;;;;;;;9.90;8.13;;;13.30;99.90;;;;;;5109913;28;20038;-42
2023/05/15 00:19:59;;;;;;;10.88;8.25;;;13.30;99.90;;;;;;5109700;28;20027;-41
2023/05/15 00:22:25;;;;;;;10.18;7.97;;;13.30;99.90;;;;;;5108834;28;20040;-41
2023/05/15 00:24:50;;;;;;;9.85;8.40;;;13.30;99.90;;;;;;5109365;28;20066;-41
2023/05/15 00:27:16;;;;;;;12.05;8.27;;;13.10;99.90;;;;;;5109341;28;20374;-42
2023/05/15 00:29:41;;;;;;;10.38;7.55;;;13.10;99.90;;;;;;5109399;28;20023;-42
2023/05/15 00:32:07;;;;;;;8.10;7.30;;;13.00;99.90;;;;;;5108681;28;20226;-42
2023/05/15 00:34:33;;;;;;;9.07;8.18;;;12.90;99.90;;;;;;5109697;28;20705;-42
2023/05/15 00:36:59;;;;;;;9.98;8.73;;;12.70;99.90;;;;;;5109371;28;20023;-42
2023/05/15 00:39:25;;;;;;;12.27;7.85;;;12.70;99.90;;;;;;5109283;28;20016;-42
2023/05/15 00:41:52;;;;;;;11.38;8.55;;;12.60;99.90;;;;;;5108935;28;20022;-42
2023/05/15 00:44:19;;;;;;;10.43;7.70;;;12.50;99.90;;;;;;5109240;28;20521;-42
2023/05/15 00:46:45;;;;;;;12.05;8.15;;;12.50;99.90;;;;;;5107488;28;20051;-41
2023/05/15 00:49:12;;;;;;;8.88;7.68;;;12.50;99.90;;;;;;5108903;28;20055;-43
2023/05/15 00:51:40;;;;;;;9.73;8.02;;;12.50;99.90;;;;;;5108725;28;20027;-42
2023/05/15 00:54:07;;;;;;;12.65;8.18;;;12.40;99.90;;;;;;5108936;28;20047;-42
2023/05/15 00:56:33;;;;;;;10.30;8.77;;;12.50;99.90;;;;;;5109050;28;20428;-41
2023/05/15 00:59:02;;;;;;;9.75;8.45;;;12.50;99.90;;;;;;5108402;28;20024;-41
2023/05/15 01:01:32;;;;;;;10.52;8.13;;;12.50;99.90;;;;;;5108493;28;20024;-42
2023/05/15 01:03:58;;;;;;;11.77;7.85;;;12.40;99.90;;;;;;5108809;28;20031;-40
2023/05/15 01:06:24;;;;;;;9.65;8.50;;;12.30;99.90;;;;;;5108956;28;20484;-42
2023/05/15 01:08:52;;;;;;;12.48;8.57;;;12.40;99.90;;;;;;5109253;28;20024;-42
2023/05/15 01:11:18;;;;;;;10.18;8.73;;;12.40;99.90;;;;;;5108531;28;20732;-41
2023/05/15 01:13:43;;;;;;;10.60;9.02;;;12.20;99.90;;;;;;5108747;28;20076;-41
2023/05/15 01:16:09;;;;;;;12.57;8.80;;;12.20;99.90;;;;;;5109156;28;20031;-40
2023/05/15 01:18:35;;;;;;;9.88;8.18;;;12.20;99.90;;;;;;5109632;28;20027;-41
2023/05/15 01:21:04;;;;;;;9.32;7.63;;;12.20;99.90;;;;;;5107908;28;20396;-40
2023/05/15 01:23:51;;;;;;;13.13;9.20;;;12.00;99.90;;;;;;5107723;28;20020;-40
2023/05/15 01:26:48;;;;;;;12.48;9.00;;;12.10;99.90;;;;;;5109088;28;20366;-41
2023/05/15 01:29:23;;;;;;;14.93;9.98;;;12.00;99.90;;;;;;5109164;28;20031;-40
2023/05/15 01:32:01;;;;;;;13.38;8.55;;;12.00;99.90;;;;;;5108815;28;20077;-41
2023/05/15 01:34:42;;;;;;;13.48;9.57;;;12.00;99.90;;;;;;5096093;28;20047;-41
2023/05/15 01:37:13;;;;;;;12.93;8.65;;;12.00;99.90;;;;;;5108066;28;20403;-41
2023/05/15 01:39:42;;;;;;;10.35;8.40;;;11.90;99.90;;;;;;5107929;28;20035;-41
2023/05/15 01:42:16;;;;;;;10.15;8.65;;;11.70;99.90;;;;;;5107067;28;20524;-41
2023/05/15 01:45:07;;;;;;;8.60;7.47;;;11.60;99.90;;;;;;5090590;28;20027;-41
2023/05/15 01:47:39;;;;;;;12.25;9.73;;;11.50;99.90;;;;;;5107337;28;20619;-41
2023/05/15 01:50:08;;;;;;;11.95;8.70;;;11.50;99.90;;;;;;5108699;28;20059;-41
2023/05/15 01:52:37;;;;;;;11.93;9.10;;;11.40;99.90;;;;;;5108260;28;20042;-42
2023/05/15 01:55:04;;;;;;;10.45;9.13;;;11.40;99.90;;;;;;5108574;28;20507;-41
2023/05/15 01:57:30;;;;;;;11.60;8.63;;;11.40;99.90;;;;;;5108489;28;20049;-41
2023/05/15 01:59:57;;;;;;;10.15;8.98;;;11.40;99.90;;;;;;5108964;28;20020;-42
2023/05/15 02:02:24;;;;;;;13.93;9.73;;;11.40;99.90;;;;;;5108439;28;20447;-40
2023/05/15 02:04:51;;;;;;;10.70;8.93;;;11.40;99.90;;;;;;5108657;28;20024;-41
2023/05/15 02:07:18;;;;;;;11.05;8.20;;;11.40;99.90;;;;;;5108905;28;20431;-41
2023/05/15 02:09:45;;;;;;;11.45;8.98;;;11.40;99.90;;;;;;5108654;28;20030;-41
2023/05/15 02:12:12;;;;;;;10.95;8.25;;;11.40;99.90;;;;;;5109826;28;20066;-41
2023/05/15 02:14:39;;;;;;;11.10;8.68;;;11.50;99.90;;;;;;5112304;28;20076;-42
2023/05/15 02:17:05;;;;;;;10.40;8.85;;;11.40;99.90;;;;;;5110643;28;20102;-44
2023/05/15 02:19:31;;;;;;;12.35;9.35;;;11.30;99.90;;;;;;5112236;27;20444;-43
2023/05/15 02:21:57;;;;;;;12.75;9.10;;;11.20;99.90;;;;;;5111770;28;20038;-43
2023/05/15 02:24:23;;;;;;;9.80;8.80;;;11.20;99.90;;;;;;5110581;28;20020;-41
2023/05/15 02:27:04;;;;;;;11.52;9.25;;;11.20;99.90;;;;;;5112084;28;20092;-43
2023/05/15 02:29:38;;;;;;;10.05;8.65;;;11.10;99.90;;;;;;5110756;28;20103;-43
2023/05/15 02:32:42;;;;;;;12.70;10.40;;;11.10;99.90;;;;;;5111525;28;20024;-42
2023/05/15 02:35:29;;;;;;;11.43;10.07;;;11.10;99.90;;;;;;5112257;28;20023;-41
2023/05/15 02:37:57;;;;;;;11.77;9.40;;;11.10;99.90;;;;;;5110771;28;20051;-42
2023/05/15 02:40:25;;;;;;;12.52;10.95;;;11.10;99.90;;;;;;5111778;28;20020;-42
2023/05/15 02:42:52;;;;;;;12.82;10.13;;;11.10;99.90;;;;;;5109937;28;20023;-42
2023/05/15 02:45:19;;;;;;;11.55;9.30;;;11.10;99.90;;;;;;5111709;28;20035;-42
2023/05/15 02:47:49;;;;;;;12.68;10.30;;;11.00;99.90;;;;;;5110112;28;20219;-41
2023/05/15 02:50:16;;;;;;;12.25;10.57;;;11.00;99.90;;;;;;5110339;28;20048;-44
2023/05/15 02:52:42;;;;;;;15.88;11.27;;;10.90;99.90;;;;;;5109907;28;20106;-41
2023/05/15 02:55:08;;;;;;;15.93;10.82;;;10.90;99.90;;;;;;5111234;28;20020;-41
2023/05/15 02:57:35;;;;;;;14.65;11.65;;;10.80;99.90;;;;;;5111446;28;20027;-41
2023/05/15 03:00:01;;;;;;;14.60;11.80;;;10.90;99.90;;;;;;5111122;28;20055;-41
2023/05/15 03:02:26;;;;;;;15.57;10.98;;;10.90;99.90;;;;;;5109773;28;20489;-41
2023/05/15 03:04:52;;;;;;;11.20;10.02;;;10.80;99.90;;;;;;5111069;28;20027;-42
2023/05/15 03:07:18;;;;;;;12.27;10.05;;;10.80;99.90;;;;;;5109152;28;20102;-41
2023/05/15 03:09:44;;;;;;;11.52;10.32;;;10.80;99.90;;;;;;5111458;28;20090;-41
2023/05/15 03:12:10;;;;;;;13.45;10.77;;;10.80;99.90;;;;;;5110986;28;20410;-41
2023/05/15 03:14:36;;;;;;;12.95;10.00;;;10.70;99.90;;;;;;5110861;28;20016;-41
2023/05/15 03:17:02;;;;;;;12.68;10.50;;;10.80;99.90;;;;;;5110834;28;20015;-41
2023/05/15 03:19:27;;;;;;;15.02;11.57;;;10.80;99.90;;;;;;5110985;28;20102;-41
2023/05/15 03:21:53;;;;;;;14.20;11.27;;;10.70;99.90;;;;;;5109972;28;20106;-41
2023/05/15 03:24:18;;;;;;;12.95;10.90;;;10.70;99.90;;;;;;5110436;28;20032;-41
2023/05/15 03:26:44;;;;;;;15.55;11.63;;;10.60;99.90;;;;;;5108593;28;20420;-42
2023/05/15 03:29:10;;;;;;;14.85;11.23;;;10.60;99.90;;;;;;5110431;28;20102;-41
2023/05/15 03:31:35;;;;;;;16.58;11.43;;;10.60;99.90;;;;;;5109996;28;20015;-42
2023/05/15 03:34:01;;;;;;;16.33;11.77;;;10.70;99.90;;;;;;5110486;28;20491;-41
2023/05/15 03:36:26;;;;;;;13.70;11.85;;;10.70;99.90;;;;;;5110377;28;20031;-41
2023/05/15 03:38:52;;;;;;;13.32;10.75;;;10.70;99.90;;;;;;5110424;28;20031;-41
2023/05/15 03:41:17;;;;;;;13.48;11.73;;;10.70;99.90;;;;;;5109744;28;20034;-41
2023/05/15 03:43:43;;;;;;;14.13;11.55;;;10.60;99.90;;;;;;5109943;28;20051;-41
2023/05/15 03:46:08;;;;;;;15.13;11.35;;;10.60;99.90;;;;;;5110044;28;20020;-42
2023/05/15 03:48:34;;;;;;;14.45;12.10;;;10.60;99.90;;;;;;5110137;28;20085;-42
2023/05/15 03:50:59;;;;;;;13.43;11.88;;;10.60;99.90;;;;;;5109809;28;20230;-43
2023/05/15 03:53:25;;;;;;;17.92;12.80;;;10.60;99.90;;;;;;5108112;28;20384;-41
2023/05/15 03:55:50;;;;;;;13.57;11.98;;;10.60;99.90;;;;;;5110013;28;20443;-40
2023/05/15 03:58:16;;;;;;;16.02;13.13;;;10.60;99.90;;;;;;5109626;28;20024;-41
2023/05/15 04:00:42;;;;;;;14.30;12.05;;;10.60;99.90;;;;;;5110045;28;20023;-41
2023/05/15 04:03:07;;;;;;;16.67;13.38;;;10.60;99.90;;;;;;5109584;28;20028;-40
2023/05/15 04:05:33;;;;;;;18.05;13.57;;;10.60;99.90;;;;;;5108321;28;20028;-41
2023/05/15 04:07:58;;;;;;;15.50;12.35;;;10.60;99.90;;;;;;5108448;28;20362;-41
2023/05/15 04:10:24;;;;;;;15.25;12.10;;;10.60;99.90;;;;;;5106729;28;20023;-42
2023/05/15 04:12:50;;;;;;;17.63;12.90;;;10.60;99.90;;;;;;5089951;28;20024;-41
2023/05/15 04:15:22;;;;;;;19.70;13.25;;;10.70;99.90;;;;;;5108051;28;20016;-42
2023/05/15 04:17:49;;;;;;;15.73;13.13;;;10.70;99.90;;;;;;5109705;28;20019;-41
2023/05/15 04:20:17;;;;;;;15.50;12.60;;;10.70;99.90;;;;;;5109758;28;20043;-42
2023/05/15 04:22:43;;;;;;;17.35;14.23;;;10.80;99.90;;;;;;5109092;28;20023;-48
2023/05/15 04:25:10;;;;;;;14.93;12.52;;;10.80;99.90;;;;;;5109429;28;20032;-47
2023/05/15 04:27:36;;;;;;;18.58;12.90;;;10.80;99.90;;;;;;5109896;28;20023;-47
2023/05/15 04:30:03;;;;;;;15.20;12.55;;;10.90;99.90;;;;;;5109332;28;20027;-48
2023/05/15 04:32:30;;;;;;;14.75;12.35;;;11.00;99.90;;;;;;5109001;28;20039;-48
2023/05/15 04:34:58;;;;;;;15.75;11.68;;;11.10;99.90;;;;;;5108729;28;20330;-51
2023/05/15 04:37:24;;;;;;;16.48;11.32;;;11.10;99.90;;;;;;5109362;28;20716;-47
2023/05/15 04:39:50;;;;;;;13.02;11.10;;;11.10;99.90;;;;;;5108006;28;20115;-50
2023/05/15 04:42:16;;;;;;;13.55;11.63;;;11.10;99.90;;;;;;5108812;28;20465;-51
2023/05/15 04:44:43;;;;;;;14.55;11.57;;;11.20;99.90;;;;;;5109351;28;20384;-51
2023/05/15 04:47:10;;;;;;;11.82;10.25;;;11.20;99.90;;;;;;5107514;28;20066;-52
2023/05/15 04:49:36;;;;;;;15.85;11.93;;;11.20;99.90;;;;;;5108162;28;20144;-48
2023/05/15 04:52:02;;;;;;;15.50;11.68;;;11.30;99.90;;;;;;5107347;28;20749;-47
2023/05/15 04:54:28;;;;;;;15.70;11.13;;;11.30;99.90;;;;;;5108941;28;20093;-47
2023/05/15 04:56:53;;;;;;;16.60;13.02;;;11.30;99.90;;;;;;5108959;28;20431;-52
2023/05/15 04:59:20;;;;;;;17.85;11.77;;;11.40;99.90;;;;;;5109075;28;20028;-49
2023/05/15 05:01:46;;;;;;;16.13;12.82;;;11.40;99.90;;;;;;5108410;28;20015;-47
2023/05/15 05:04:13;;;;;;;13.93;11.57;;;11.50;99.90;;;;;;5107426;28;20489;-49
2023/05/15 05:06:45;;;;;;;16.33;12.40;;;11.60;99.90;;;;;;5090927;28;20181;-52
2023/05/15 05:09:13;;;;;;;16.05;12.13;;;11.60;99.90;;;;;;5091896;28;20027;-49
2023/05/15 05:11:42;;;;;;;13.63;11.00;;;11.70;99.90;;;;;;5107085;28;20060;-51
2023/05/15 05:14:10;;;;;;;14.75;11.50;;;11.80;99.90;;;;;;5087757;28;20025;-50
2023/05/15 05:16:36;;;;;;;13.40;11.57;;;11.90;99.90;;;;;;5109027;28;20019;-47
2023/05/15 05:19:02;;;;;;;14.75;11.35;;;11.90;99.90;;;;;;5108843;28;20020;-47
2023/05/15 05:21:28;;;;;;;13.13;10.57;;;11.90;99.90;;;;;;5108069;28;20026;-47
2023/05/15 05:23:54;;;;;;;15.38;11.10;;;11.90;99.90;;;;;;5108528;28;20031;-47
2023/05/15 05:26:20;;;;;;;12.98;10.65;;;12.00;99.90;;;;;;5108524;28;20020;-48
2023/05/15 05:28:46;;;;;;;11.63;10.30;;;12.00;99.90;;;;;;5090616;28;20501;-47
2023/05/15 05:31:12;;;;;;;14.32;10.77;;;12.10;99.90;;;;;;5089673;28;20067;-47
2023/05/15 05:33:37;;;;;;;13.65;10.32;;;12.10;99.90;;;;;;5091114;28;20437;-47
2023/05/15 05:36:04;;;;;;;13.45;10.50;;;12.20;99.90;;;;;;5106796;28;20035;-47
2023/05/15 05:38:29;;;;;;;15.65;11.95;;;12.30;99.90;;;;;;5107944;28;20024;-47
2023/05/15 05:40:55;;;;;;;14.88;11.57;;;12.30;99.90;;;;;;5107900;28;20027;-47
2023/05/15 05:43:21;;;;;;;17.63;11.95;;;12.40;99.90;;;;;;5107873;28;20391;-47
2023/05/15 05:45:46;;;;;;;13.25;10.80;;;12.50;99.90;;;;;;5110961;28;20491;-47
2023/05/15 05:48:12;;;;;;;13.00;10.30;;;12.60;99.90;;;;;;5106653;28;20020;-47
2023/05/15 05:50:38;;;;;;;18.77;11.45;;;12.70;99.90;;;;;;5112450;28;20028;-47
2023/05/15 05:53:04;;;;;;;12.27;9.80;;;12.80;99.90;;;;;;5111785;27;20036;-47
2023/05/15 05:55:29;;;;;;;11.23;9.85;;;12.90;99.90;;;;;;5112186;28;20031;-47
2023/05/15 05:57:56;;;;;;;11.25;10.05;;;13.10;99.90;;;;;;5110568;28;20026;-47
2023/05/15 06:00:23;;;;;;;12.10;10.13;;;13.20;99.90;;;;;;5110530;28;20031;-47
2023/05/15 06:02:54;;;;;;;14.27;10.35;;;13.30;99.90;;;;;;5111964;28;20028;-48
2023/05/15 06:05:19;;;;;;;12.20;9.02;;;13.40;99.90;;;;;;5112023;28;20500;-47
2023/05/15 06:07:45;;;;;;;12.32;9.93;;;13.50;99.90;;;;;;5112200;28;20243;-51
2023/05/15 06:10:11;;;;;;;13.05;10.43;;;13.60;99.90;;;;;;5111713;28;20016;-50
2023/05/15 06:12:37;;;;;;;17.27;10.43;;;13.80;99.90;;;;;;5111628;28;20043;-48
2023/05/15 06:15:03;;;;;;;11.52;8.77;;;13.90;99.90;;;;;;5111828;28;20055;-50
2023/05/15 06:17:28;;;;;;;11.88;10.23;;;14.00;99.90;;;;;;5111742;28;20477;-50
2023/05/15 06:19:54;;;;;;;12.27;10.15;;;14.10;99.90;;;;;;5111855;28;20031;-50
2023/05/15 06:22:19;;;;;;;23.20;9.93;;;14.10;99.90;;;;;;5111235;28;20445;-47
2023/05/15 06:24:45;;;;;;;13.48;10.30;;;14.20;99.90;;;;;;5110283;28;20019;-49
2023/05/15 06:27:10;;;;;;;12.35;9.75;;;14.30;99.90;;;;;;5111953;28;20020;-48
2023/05/15 06:29:36;;;;;;;15.00;10.77;;;14.30;99.90;;;;;;5111974;28;20360;-47
2023/05/15 06:32:01;;;;;;;11.32;9.50;;;14.40;99.90;;;;;;5111066;28;20032;-49
2023/05/15 06:34:27;;;;;;;13.70;10.10;;;14.50;99.90;;;;;;5111614;28;20031;-49
2023/05/15 06:36:52;;;;;;;13.77;10.00;;;14.60;99.90;;;;;;5105929;28;20036;-47
2023/05/15 06:39:18;;;;;;;13.43;9.40;;;14.60;99.90;;;;;;5110974;28;20386;-49
2023/05/15 06:41:45;;;;;;;13.05;9.02;;;14.70;99.90;;;;;;5110708;28;20033;-48
2023/05/15 06:44:10;;;;;;;15.05;9.77;;;14.70;99.90;;;;;;5109489;28;20028;-47
2023/05/15 06:46:36;;;;;;;15.35;9.95;;;14.80;99.90;;;;;;5109636;28;20035;-50
2023/05/15 06:49:01;;;;;;;13.63;9.65;;;14.80;99.90;;;;;;5111533;28;20011;-48
2023/05/15 06:51:27;;;;;;;14.10;10.43;;;14.80;99.90;;;;;;5110744;28;20030;-48
2023/05/15 06:53:52;;;;;;;17.77;9.93;;;14.80;99.90;;;;;;5109993;28;20024;-47
2023/05/15 06:56:18;;;;;;;15.55;10.15;;;14.80;99.90;;;;;;5108900;28;20024;-47
2023/05/15 06:58:43;;;;;;;12.30;10.15;;;14.80;99.90;;;;;;5111315;28;20063;-48
2023/05/15 07:01:09;;;;;;;17.33;12.07;;;14.90;99.90;;;;;;5111182;28;20045;-49
2023/05/15 07:03:34;;;;;;;16.13;10.82;;;14.80;99.90;;;;;;5109736;28;20369;-47
2023/05/15 07:06:00;;;;;;;15.70;10.45;;;14.80;99.90;;;;;;5110801;28;20038;-47
2023/05/15 07:08:25;;;;;;;29.40;18.05;;;14.90;99.90;;;;;;5111022;28;20482;-48
2023/05/15 07:10:52;;;;;;;19.08;13.43;;;15.00;99.90;;;;;;5110803;28;20455;-50
2023/05/15 07:13:19;;;;;;;16.92;11.73;;;15.00;99.90;;;;;;5102969;28;20023;-47
2023/05/15 07:15:45;;;;;;;12.70;11.35;;;15.10;99.90;;;;;;5088174;28;20020;-48
2023/05/15 07:18:10;;;;;;;15.27;10.65;;;14.90;99.90;;;;;;5103037;28;20077;-47
2023/05/15 07:20:36;;;;;;;14.05;11.25;;;15.00;99.90;;;;;;5108640;28;20072;-51
2023/05/15 07:23:02;;;;;;;11.77;9.77;;;15.00;99.90;;;;;;5101539;28;20028;-47
2023/05/15 07:25:28;;;;;;;12.85;10.65;;;15.00;99.90;;;;;;5090749;28;20108;-48
2023/05/15 07:27:54;;;;;;;15.38;12.23;;;15.10;99.90;;;;;;5091374;28;20110;-48
2023/05/15 07:30:20;;;;;;;13.75;10.23;;;15.00;99.90;;;;;;5092982;28;20026;-48
2023/05/15 07:32:46;;;;;;;16.77;9.75;;;15.00;99.90;;;;;;5088884;28;20020;-49
2023/05/15 07:35:12;;;;;;;12.63;9.10;;;15.10;99.90;;;;;;5087425;28;20017;-49
2023/05/15 07:37:38;;;;;;;14.57;9.95;;;15.20;99.90;;;;;;5102294;28;20027;-48
2023/05/15 07:40:04;;;;;;;12.27;9.63;;;15.30;99.90;;;;;;5110184;28;20380;-50
2023/05/15 07:42:30;;;;;;;13.75;10.07;;;15.50;99.90;;;;;;5105380;28;20027;-49
2023/05/15 07:44:55;;;;;;;16.05;9.40;;;15.50;99.90;;;;;;5109694;28;20232;-48
2023/05/15 07:47:21;;;;;;;14.98;9.95;;;15.70;99.90;;;;;;5098440;28;20077;-48
2023/05/15 07:49:47;;;;;;;11.55;9.57;;;15.80;99.90;;;;;;5101438;28;20019;-47
2023/05/15 07:52:13;;;;;;;13.65;10.00;;;15.90;99.90;;;;;;5108246;28;20493;-47
2023/05/15 07:54:40;;;;;;;10.77;8.32;;;16.00;99.90;;;;;;5109029;28;20011;-47
2023/05/15 07:57:07;;;;;;;11.30;8.05;;;16.20;99.90;;;;;;5108880;28;20031;-51
2023/05/15 07:59:32;;;;;;;10.30;8.15;;;16.30;99.90;;;;;;5110193;28;20122;-47
2023/05/15 08:01:58;;;;;;;11.57;8.27;;;16.50;99.90;;;;;;5109378;28;20447;-50
2023/05/15 08:04:24;;;;;;;14.45;9.55;;;16.80;99.90;;;;;;5109225;28;20106;-50
2023/05/15 08:06:50;;;;;;;11.65;8.80;;;17.00;99.90;;;;;;5107162;28;20450;-48
2023/05/15 08:09:15;;;;;;;11.02;8.40;;;17.30;99.90;;;;;;5108445;28;20012;-48
2023/05/15 08:11:41;;;;;;;13.38;8.70;;;17.60;99.90;;;;;;5107733;28;20559;-47
2023/05/15 08:14:07;;;;;;;12.02;7.75;;;17.90;99.90;;;;;;5092787;28;20028;-47
2023/05/15 08:16:32;;;;;;;16.63;8.27;;;18.20;99.90;;;;;;5086905;28;20058;-46
2023/05/15 08:19:02;;;;;;;9.45;7.55;;;18.40;99.90;;;;;;5090930;28;20420;-49
2023/05/15 08:21:28;;;;;;;8.45;7.55;;;18.70;99.90;;;;;;5098604;28;20372;-48
2023/05/15 08:23:54;;;;;;;9.32;6.90;;;18.90;99.90;;;;;;5108972;28;20110;-48
2023/05/15 08:26:20;;;;;;;9.93;6.85;;;19.00;99.90;;;;;;5103058;28;20023;-47
2023/05/15 08:28:46;;;;;;;15.45;7.40;;;19.20;99.60;;;;;;5108430;28;20400;-47
2023/05/15 08:31:12;;;;;;;13.65;7.70;;;19.40;98.30;;;;;;5107880;28;20027;-47
2023/05/15 08:33:37;;;;;;;10.35;7.25;;;19.40;98.10;;;;;;5108607;28;20024;-47
2023/05/15 08:36:03;;;;;;;14.35;7.45;;;19.80;97.90;;;;;;5100756;28;20115;-47
2023/05/15 08:38:29;;;;;;;8.85;6.70;;;20.00;96.40;;;;;;5108952;28;20028;-49
2023/05/15 08:40:59;;;;;;;9.52;6.25;;;20.30;96.20;;;;;;5108794;28;20064;-50
2023/05/15 08:43:28;;;;;;;10.65;7.15;;;20.40;95.60;;;;;;5107242;28;20385;-50
2023/05/15 08:45:54;;;;;;;9.48;6.72;;;20.80;95.30;;;;;;5109142;28;20032;-48
2023/05/15 08:48:24;;;;;;;9.85;7.00;;;21.10;94.00;;;;;;5109204;28;20024;-49
2023/05/15 08:50:51;;;;;;;11.48;6.22;;;21.00;93.90;;;;;;5108998;28;20023;-47
2023/05/15 08:53:17;;;;;;;9.45;6.47;;;21.10;92.40;;;;;;5108656;28;20053;-48
2023/05/15 08:55:44;;;;;;;12.30;6.32;;;21.20;93.60;;;;;;5109052;28;20059;-49
2023/05/15 08:58:10;;;;;;;9.50;6.75;;;21.30;93.20;;;;;;5103871;28;20046;-48
2023/05/15 09:00:36;;;;;;;11.57;6.82;;;21.40;92.30;;;;;;5105206;28;20032;-47
2023/05/15 09:03:12;;;;;;;9.52;5.80;;;21.60;92.60;;;;;;5090138;28;20073;-48
2023/05/15 09:05:38;;;;;;;6.93;5.68;;;21.70;92.40;;;;;;5107453;28;20048;-47
2023/05/15 09:08:07;;;;;;;9.95;6.25;;;22.20;91.70;;;;;;5097017;28;20020;-47
2023/05/15 09:10:34;;;;;;;8.75;5.90;;;22.50;90.70;;;;;;5090319;28;20025;-48
2023/05/15 09:13:01;;;;;;;7.50;4.80;;;23.10;86.20;;;;;;5107900;28;20016;-48
2023/05/15 09:15:26;;;;;;;8.55;5.07;;;24.20;87.10;;;;;;5108169;28;20077;-49
2023/05/15 09:17:53;;;;;;;9.25;4.50;;;25.40;80.20;;;;;;5108649;28;20023;-48
2023/05/15 09:20:31;;;;;;;11.15;7.13;;;26.10;74.50;;;;;;5110172;28;20027;-48
2023/05/15 09:23:01;;;;;;;19.27;15.30;;;27.20;68.70;;;;;;5112504;28;20011;-48
2023/05/15 09:25:36;;;;;;;7.53;4.15;;;27.60;68.80;;;;;;5112489;28;20072;-52
2023/05/15 09:28:03;;;;;;;6.60;4.20;;;27.80;67.30;;;;;;5111243;28;20457;-50
2023/05/15 09:30:33;;;;;;;6.10;3.63;;;28.50;65.70;;;;;;5094200;28;20026;-45
2023/05/15 09:33:02;;;;;;;7.05;3.38;;;29.00;63.50;;;;;;5112101;28;20020;-46
2023/05/15 09:35:30;;;;;;;4.80;3.58;;;29.60;59.40;;;;;;5094515;28;20020;-45
2023/05/15 09:38:00;;;;;;;7.15;3.35;;;30.10;57.80;;;;;;5112436;28;20055;-49
2023/05/15 09:40:31;;;;;;;4.55;3.15;;;30.60;55.90;;;;;;5112834;28;20026;-49
2023/05/15 09:42:57;;;;;;;5.30;3.65;;;31.40;55.00;;;;;;5110549;28;20391;-45
2023/05/15 09:45:25;;;;;;;3.50;3.10;;;31.80;53.10;;;;;;5112178;28;20031;-46
2023/05/15 09:47:51;;;;;;;3.30;3.00;;;32.40;53.50;;;;;;5110671;28;20105;-47
2023/05/15 09:50:22;;;;;;;6.90;3.45;;;32.70;50.90;;;;;;5103841;28;20031;-46
2023/05/15 09:52:49;;;;;;;4.60;2.63;;;33.30;50.80;;;;;;5104065;28;20062;-46
2023/05/15 09:55:18;;;;;;;4.68;2.85;;;33.50;51.00;;;;;;5110789;28;20447;-46
2023/05/15 09:58:02;;;;;;;3.42;2.85;;;34.10;50.00;;;;;;5111325;28;20020;-47
2023/05/15 10:00:29;;;;;;;5.18;3.10;;;34.40;49.90;;;;;;5097082;28;20084;-49
2023/05/15 10:02:59;;;;;;;6.15;3.08;;;34.10;44.00;;;;;;5093909;28;20058;-49
2023/05/15 10:05:29;;;;;;;3.55;2.53;;;33.50;44.10;;;;;;5112137;27;20160;-54
2023/05/15 10:07:57;;;;;;;;;;;33.70;44.30;;;;;;5113107;28;20027;-47
2023/05/15 10:10:25;;;;;;;5.03;2.70;;;33.60;42.80;;;;;;5102246;28;19908;-47
2023/05/15 10:12:52;;;;;;;2.92;2.72;;;34.20;45.40;;;;;;5093954;28;20031;-47
2023/05/15 10:15:19;;;;;;;5.45;2.55;;;34.40;42.00;;;;;;5112043;28;20031;-47
2023/05/15 10:17:47;;;;;;;3.63;2.78;;;33.60;41.20;;;;;;5094237;28;20056;-47
2023/05/15 10:20:15;;;;;;;4.63;3.05;;;33.30;41.50;;;;;;5111819;28;20491;-47
2023/05/15 10:22:45;;;;;;;3.85;3.10;;;33.60;42.20;;;;;;5111443;28;20022;-49
2023/05/15 10:25:49;;;;;;;4.07;3.17;;;33.20;41.40;;;;;;5111906;28;20024;-50
2023/05/15 10:28:17;;;;;;;3.75;2.92;;;34.00;44.00;;;;;;5127533;27;20012;-47
2023/05/15 10:30:43;;;;;;;6.63;3.00;;;34.60;42.80;;;;;;5109377;28;20046;-50
2023/05/15 10:33:11;;;;;;;6.75;2.75;;;34.80;43.00;;;;;;5110879;28;20020;-47
2023/05/15 10:35:38;;;;;;;6.22;3.20;;;34.80;40.80;;;;;;5111399;28;20114;-47
2023/05/15 10:38:05;;;;;;;3.40;2.95;;;33.40;42.40;;;;;;5111302;28;20027;-47
2023/05/15 10:40:36;;;;;;;5.93;3.38;;;32.50;41.50;;;;;;5111041;28;20473;-47
2023/05/15 10:43:03;;;;;;;2.92;2.70;;;31.80;42.10;;;;;;5111287;28;20062;-48
2023/05/15 10:45:30;;;;;;;7.45;3.00;;;32.20;43.50;;;;;;5111179;28;20472;-47
2023/05/15 10:47:56;;;;;;;8.13;3.63;;;33.20;44.30;;;;;;5109716;28;20028;-48
2023/05/15 10:50:22;;;;;;;4.75;3.05;;;34.00;44.00;;;;;;5095829;28;20556;-47
2023/05/15 10:52:51;;;;;;;7.45;3.35;;;33.80;40.50;;;;;;5094699;28;20141;-47
2023/05/15 10:55:17;;;;;;;5.88;3.45;;;33.50;41.40;;;;;;5095433;28;20023;-47
2023/05/15 10:57:46;;;;;;;9.70;3.50;;;32.10;41.80;;;;;;5097761;28;20028;-48
2023/05/15 11:00:20;;;;;;;7.05;3.63;;;30.30;44.90;;;;;;5095222;28;20012;-47
2023/05/15 11:02:47;;;;;;;4.55;3.22;;;29.30;47.20;;;;;;5092244;28;20043;-47
2023/05/15 11:05:13;;;;;;;5.03;3.05;;;28.60;48.20;;;;;;5094095;28;20028;-48
2023/05/15 11:07:39;;;;;;;7.43;3.95;;;27.80;48.20;;;;;;5097215;28;20028;-47
2023/05/15 11:10:27;;;;;;;5.70;4.03;;;26.90;48.10;;;;;;5090423;28;20319;-46
2023/05/15 11:12:57;;;;;;;4.88;3.58;;;26.00;50.40;;;;;;5061784;28;20032;-47
2023/05/15 11:15:23;;;;;;;8.18;3.70;;;25.40;51.80;;;;;;5094045;28;20028;-46
2023/05/15 11:18:03;;;;;;;9.30;4.10;;;24.80;52.50;;;;;;5097084;27;20065;-46
2023/05/15 11:20:33;;;;;;;;;;;24.40;52.70;;;;;;5094537;28;20073;-46
2023/05/15 11:22:59;;;;;;;8.85;3.75;;;24.00;53.00;;;;;;5092639;28;20326;-45
2023/05/15 11:25:35;;;;;;;5.95;4.03;;;23.60;53.70;;;;;;5094691;28;20243;-45
2023/05/15 11:28:02;;;;;;;6.13;4.07;;;23.40;56.00;;;;;;5094035;28;20074;-47
2023/05/15 11:30:38;;;;;;;10.48;3.92;;;23.00;54.20;;;;;;5095651;28;20107;-48
2023/05/15 11:33:14;;;;;;;7.05;3.90;;;22.70;54.70;;;;;;5094274;28;20355;-46
2023/05/15 11:35:46;;;;;;;5.13;3.78;;;22.30;54.00;;;;;;5096741;28;20126;-46
2023/05/15 11:38:15;;;;;;;6.18;4.35;;;22.30;58.00;;;;;;5094321;28;20020;-48
2023/05/15 11:40:51;;;;;;;5.27;4.10;;;22.10;57.30;;;;;;5096703;28;20464;-46
2023/05/15 11:43:26;;;;;;;7.32;4.15;;;22.10;58.50;;;;;;5093814;28;20536;-47
2023/05/15 11:46:13;;;;;;;6.07;4.28;;;21.90;54.70;;;;;;5091456;28;20062;-47
2023/05/15 11:48:40;;;;;;;6.10;3.33;;;21.90;55.60;;;;;;5092242;28;20538;-46
2023/05/15 11:51:14;;;;;;;7.38;4.00;;;21.80;57.90;;;;;;5083455;28;20716;-47
2023/05/15 11:53:40;;;;;;;12.63;8.07;;;21.80;57.20;;;;;;5093581;28;20028;-47
2023/05/15 11:56:06;;;;;;;17.98;10.90;;;21.60;58.00;;;;;;5091266;28;20077;-47
2023/05/15 11:58:32;;;;;;;16.23;12.32;;;21.50;58.50;;;;;;5094943;28;20516;-47
2023/05/15 12:00:58;;;;;;;5.78;4.05;;;21.40;58.50;;;;;;5094492;28;20020;-48
2023/05/15 12:03:26;;;;;;;5.68;3.92;;;21.30;58.10;;;;;;5092015;28;20028;-47
2023/05/15 12:05:52;;;;;;;6.05;3.70;;;21.10;58.60;;;;;;5093463;28;20026;-46
2023/05/15 12:08:22;;;;;;;8.63;3.90;;;20.90;56.70;;;;;;5093724;28;20026;-47
2023/05/15 12:10:48;;;;;;;8.07;3.90;;;20.80;57.00;;;;;;5095351;28;20074;-47
2023/05/15 12:13:16;;;;;;;5.60;4.05;;;20.70;57.50;;;;;;5092955;28;20039;-46
2023/05/15 12:15:43;;;;;;;9.40;3.63;;;20.70;59.30;;;;;;5095463;28;20020;-51
2023/05/15 12:18:08;;;;;;;5.40;3.70;;;20.50;59.60;;;;;;5093314;28;20024;-47
2023/05/15 12:20:36;;;;;;;4.13;3.70;;;20.40;60.00;;;;;;5092000;28;20397;-46
2023/05/15 12:23:03;;;;;;;8.32;4.00;;;20.30;61.50;;;;;;5090539;28;20023;-47
2023/05/15 12:25:29;;;;;;;8.68;4.13;;;20.20;61.60;;;;;;5105850;28;20072;-46
2023/05/15 12:27:55;;;;;;;7.63;5.32;;;20.20;62.90;;;;;;5109090;28;20019;-46
2023/05/15 12:30:21;;;;;;;7.53;4.40;;;20.10;61.50;;;;;;5109469;28;20078;-47
2023/05/15 12:32:47;;;;;;;7.93;3.95;;;20.00;62.50;;;;;;5108970;27;20015;-47
2023/05/15 12:35:14;;;;;;;5.50;3.53;;;20.10;62.20;;;;;;5109192;28;20412;-46
2023/05/15 12:37:41;;;;;;;4.60;3.70;;;20.20;62.40;;;;;;5096351;28;20024;-46
2023/05/15 12:40:10;;;;;;;5.90;3.78;;;20.10;62.60;;;;;;5108713;28;20091;-50